Time,TemperatureF,DewpointF,PressureIn,WindDirection,WindDirectionDegrees,WindSpeedMPH,WindSpeedGustMPH,Humidity,HourlyPrecipIn,Conditions,Clouds,dailyrainin,SoftwareType,DateUTC
2013-07-28 00:10:00,76.0,74.0,29.99,SE,130,0.0,0.0,93,0.00,,,0.00,weatherlink.com 1.10,2013-07-28 04:10:00,
2013-07-28 00:25:00,75.8,74.0,29.99,SSE,160,0.0,0.0,93,0.00,,,0.00,weatherlink.com 1.10,2013-07-28 04:25:00,
2013-07-28 00:40:00,75.6,74.0,29.98,SSE,149,0.0,0.0,94,0.00,,,0.00,weatherlink.com 1.10,2013-07-28 04:40:00,
2013-07-28 00:55:00,75.4,74.0,29.98,SE,141,0.0,0.0,94,0.00,,,0.00,weatherlink.com 1.10,2013-07-28 04:55:00,
2013-07-28 01:10:00,75.1,74.0,29.98,SSW,201,0.0,0.0,95,0.00,,,0.00,weatherlink.com 1.10,2013-07-28 05:10:00,
2013-07-28 01:25:00,75.3,74.0,29.98,SSW,204,0.0,0.0,95,0.00,,,0.00,weatherlink.com 1.10,2013-07-28 05:25:00,
2013-07-28 01:40:00,75.5,74.0,29.97,SE,128,0.0,0.0,96,0.00,,,0.00,weatherlink.com 1.10,2013-07-28 05:40:00,
2013-07-28 01:55:00,75.5,74.0,29.97,SSE,147,0.0,0.0,96,0.00,,,0.00,weatherlink.com 1.10,2013-07-28 05:55:00,
2013-07-28 02:10:00,75.3,74.0,29.96,SE,146,0.0,0.0,96,0.00,,,0.00,weatherlink.com 1.10,2013-07-28 06:10:00,
2013-07-28 02:25:00,75.0,74.0,29.96,SE,135,0.0,0.0,96,0.00,,,0.00,weatherlink.com 1.10,2013-07-28 06:25:00,
2013-07-28 02:40:00,74.9,74.0,29.95,SE,136,0.0,0.0,96,0.00,,,0.00,weatherlink.com 1.10,2013-07-28 06:40:00,
2013-07-28 02:55:00,74.9,74.0,29.95,SE,135,0.0,0.0,96,0.00,,,0.00,weatherlink.com 1.10,2013-07-28 06:55:00,
2013-07-28 03:10:00,74.7,74.0,29.95,SE,136,0.0,0.0,96,0.00,,,0.00,weatherlink.com 1.10,2013-07-28 07:10:00,
2013-07-28 03:25:00,74.8,74.0,29.95,SE,136,0.0,0.0,97,0.00,,,0.00,weatherlink.com 1.10,2013-07-28 07:25:00,
2013-07-28 03:40:00,74.3,73.0,29.94,SE,136,0.0,0.0,97,0.00,,,0.00,weatherlink.com 1.10,2013-07-28 07:40:00,
2013-07-28 03:55:00,74.2,73.0,29.94,SE,136,0.0,0.0,97,0.00,,,0.00,weatherlink.com 1.10,2013-07-28 07:55:00,
2013-07-28 04:10:00,74.1,73.0,29.94,SE,136,0.0,0.0,97,0.00,,,0.00,weatherlink.com 1.10,2013-07-28 08:10:00,
2013-07-28 04:26:00,73.7,73.0,29.94,SE,136,0.0,0.0,97,0.00,,,0.00,weatherlink.com 1.10,2013-07-28 08:26:00,
2013-07-28 04:41:00,74.2,74.0,29.94,East,96,0.0,0.0,98,0.00,,,0.00,weatherlink.com 1.10,2013-07-28 08:41:00,
2013-07-28 04:56:00,74.3,73.0,29.94,ESE,122,0.0,0.0,97,0.00,,,0.00,weatherlink.com 1.10,2013-07-28 08:56:00,
2013-07-28 05:11:00,74.0,73.0,29.95,ESE,123,0.0,0.0,97,0.00,,,0.00,weatherlink.com 1.10,2013-07-28 09:11:00,
2013-07-28 05:26:00,74.0,73.0,29.95,ESE,123,0.0,0.0,98,0.00,,,0.00,weatherlink.com 1.10,2013-07-28 09:26:00,
2013-07-28 05:41:00,73.9,73.0,29.95,ESE,122,0.0,0.0,98,0.00,,,0.00,weatherlink.com 1.10,2013-07-28 09:41:00,
2013-07-28 05:56:00,73.8,73.0,29.95,ESE,122,0.0,0.0,98,0.00,,,0.00,weatherlink.com 1.10,2013-07-28 09:56:00,
2013-07-28 06:11:00,73.7,73.0,29.96,SE,141,0.0,0.0,98,0.00,,,0.00,weatherlink.com 1.10,2013-07-28 10:11:00,
2013-07-28 06:26:00,73.7,73.0,29.96,SSE,158,0.0,0.0,98,0.00,,,0.00,weatherlink.com 1.10,2013-07-28 10:26:00,
2013-07-28 06:41:00,73.6,73.0,29.96,SSE,162,0.0,0.0,98,0.00,,,0.00,weatherlink.com 1.10,2013-07-28 10:41:00,
2013-07-28 06:56:00,73.9,73.0,29.96,SSE,160,0.0,0.0,98,0.00,,,0.00,weatherlink.com 1.10,2013-07-28 10:56:00,
2013-07-28 07:11:00,73.8,73.0,29.97,SSE,161,0.0,0.0,98,0.00,,,0.00,weatherlink.com 1.10,2013-07-28 11:11:00,
2013-07-28 07:26:00,74.6,74.0,29.98,SE,124,0.0,0.0,99,0.00,,,0.00,weatherlink.com 1.10,2013-07-28 11:26:00,
2013-07-28 07:41:00,75.0,75.0,29.98,SE,142,0.0,0.0,99,0.00,,,0.00,weatherlink.com 1.10,2013-07-28 11:41:00,
2013-07-28 07:56:00,75.7,75.0,29.98,SSE,149,0.0,0.0,98,0.00,,,0.00,weatherlink.com 1.10,2013-07-28 11:56:00,
2013-07-28 08:11:00,77.1,77.0,29.99,SE,141,0.0,0.0,98,0.00,,,0.00,weatherlink.com 1.10,2013-07-28 12:11:00,
2013-07-28 08:41:00,81.1,78.0,30.00,ESE,107,0.0,0.0,91,0.00,,,0.00,weatherlink.com 1.10,2013-07-28 12:41:00,
2013-07-28 08:56:00,83.2,79.0,30.00,SW,218,0.0,0.0,87,0.00,,,0.00,weatherlink.com 1.10,2013-07-28 12:56:00,
2013-07-28 09:11:00,84.1,77.0,30.00,WSW,257,0.0,0.0,80,0.00,,,0.00,weatherlink.com 1.10,2013-07-28 13:11:00,
2013-07-28 09:26:00,84.7,78.0,29.99,WSW,245,0.0,0.0,80,0.00,,,0.00,weatherlink.com 1.10,2013-07-28 13:26:00,
2013-07-28 09:41:00,84.7,78.0,30.00,SW,219,0.0,0.0,80,0.00,,,0.00,weatherlink.com 1.10,2013-07-28 13:41:00,
2013-07-28 09:56:00,86.0,79.0,30.00,South,191,0.0,0.0,79,0.00,,,0.00,weatherlink.com 1.10,2013-07-28 13:56:00,
2013-07-28 10:11:00,86.6,78.0,30.00,WSW,257,0.0,0.0,76,0.00,,,0.00,weatherlink.com 1.10,2013-07-28 14:11:00,
2013-07-28 10:26:00,86.4,78.0,30.01,WNW,295,2.0,4.0,76,0.00,,,0.00,weatherlink.com 1.10,2013-07-28 14:26:00,
2013-07-28 10:41:00,87.2,77.0,30.01,SE,141,1.0,2.0,71,0.00,,,0.00,weatherlink.com 1.10,2013-07-28 14:41:00,
2013-07-28 10:56:00,86.8,76.0,30.01,West,269,0.0,3.0,71,0.00,,,0.00,weatherlink.com 1.10,2013-07-28 14:56:00,
2013-07-28 11:11:00,86.6,77.0,30.01,WSW,253,0.0,3.0,73,0.00,,,0.00,weatherlink.com 1.10,2013-07-28 15:11:00,
2013-07-28 11:41:00,88.9,77.0,30.01,South,186,0.0,3.0,68,0.00,,,0.00,weatherlink.com 1.10,2013-07-28 15:41:00,
2013-07-28 11:57:00,87.9,75.0,30.01,NNE,13,1.0,5.0,66,0.00,,,0.00,weatherlink.com 1.10,2013-07-28 15:57:00,
2013-07-28 12:12:00,89.1,73.0,30.00,SSW,210,3.0,5.0,60,0.00,,,0.00,weatherlink.com 1.10,2013-07-28 16:12:00,
2013-07-28 12:27:00,90.6,75.0,30.01,ESE,115,2.0,5.0,60,0.00,,,0.00,weatherlink.com 1.10,2013-07-28 16:27:00,
2013-07-28 12:42:00,90.4,74.0,30.01,ESE,111,1.0,7.0,59,0.00,,,0.00,weatherlink.com 1.10,2013-07-28 16:42:00,
2013-07-28 12:57:00,92.2,76.0,30.01,SSE,152,2.0,7.0,60,0.00,,,0.00,weatherlink.com 1.10,2013-07-28 16:57:00,
2013-07-28 13:12:00,91.6,76.0,30.00,SSW,210,2.0,5.0,60,0.00,,,0.00,weatherlink.com 1.10,2013-07-28 17:12:00,
2013-07-28 13:27:00,91.9,74.0,29.99,SW,228,1.0,4.0,57,0.00,,,0.00,weatherlink.com 1.10,2013-07-28 17:27:00,
2013-07-28 13:42:00,92.6,74.0,30.00,SSE,156,3.0,5.0,55,0.00,,,0.00,weatherlink.com 1.10,2013-07-28 17:42:00,
2013-07-28 13:57:00,91.3,74.0,29.99,SSE,159,0.0,5.0,58,0.00,,,0.00,weatherlink.com 1.10,2013-07-28 17:57:00,
2013-07-28 14:12:00,89.6,74.0,29.99,SE,145,1.0,5.0,60,0.00,,,0.00,weatherlink.com 1.10,2013-07-28 18:12:00,
2013-07-28 14:27:00,88.5,76.0,30.00,West,274,3.0,6.0,66,0.00,,,0.00,weatherlink.com 1.10,2013-07-28 18:27:00,
2013-07-28 14:42:00,84.5,75.0,29.99,WNW,290,3.0,11.0,72,0.00,,,0.00,weatherlink.com 1.10,2013-07-28 18:42:00,
2013-07-28 14:58:00,81.0,75.0,29.99,WNW,295,1.0,2.0,81,0.02,,,0.02,weatherlink.com 1.10,2013-07-28 18:58:00,
2013-07-28 15:12:00,80.1,75.0,29.99,WNW,288,0.0,1.0,85,0.02,,,0.02,weatherlink.com 1.10,2013-07-28 19:12:00,
2013-07-28 15:27:00,78.5,75.0,30.00,West,273,0.0,2.0,88,0.04,,,0.04,weatherlink.com 1.10,2013-07-28 19:27:00,
2013-07-28 15:42:00,77.9,75.0,30.00,NW,307,0.0,0.0,90,0.05,,,0.05,weatherlink.com 1.10,2013-07-28 19:42:00,
2013-07-28 15:57:00,78.0,75.0,29.99,SSW,208,0.0,1.0,89,0.03,,,0.05,weatherlink.com 1.10,2013-07-28 19:57:00,
2013-07-28 16:12:00,78.0,74.0,29.99,South,184,0.0,2.0,88,0.03,,,0.05,weatherlink.com 1.10,2013-07-28 20:12:00,
2013-07-28 16:27:00,78.4,75.0,30.00,WSW,253,1.0,3.0,88,0.01,,,0.05,weatherlink.com 1.10,2013-07-28 20:27:00,
2013-07-28 16:42:00,78.6,75.0,30.01,WNW,282,0.0,3.0,87,0.00,,,0.05,weatherlink.com 1.10,2013-07-28 20:42:00,
2013-07-28 16:57:00,79.0,75.0,30.01,SW,214,0.0,1.0,86,0.00,,,0.05,weatherlink.com 1.10,2013-07-28 20:57:00,
2013-07-28 17:12:00,79.7,74.0,30.01,East,97,0.0,1.0,83,0.00,,,0.05,weatherlink.com 1.10,2013-07-28 21:12:00,
2013-07-28 17:27:00,79.9,74.0,30.01,SSE,166,0.0,1.0,82,0.00,,,0.05,weatherlink.com 1.10,2013-07-28 21:27:00,
2013-07-28 17:42:00,80.0,74.0,30.01,West,281,0.0,0.0,83,0.00,,,0.05,weatherlink.com 1.10,2013-07-28 21:42:00,
2013-07-28 17:57:00,79.7,74.0,30.02,WSW,238,0.0,3.0,82,0.00,,,0.05,weatherlink.com 1.10,2013-07-28 21:57:00,
2013-07-28 18:12:00,79.2,74.0,30.02,West,273,0.0,1.0,83,0.00,,,0.05,weatherlink.com 1.10,2013-07-28 22:12:00,
2013-07-28 18:27:00,78.8,74.0,30.03,NNW,332,0.0,0.0,84,0.00,,,0.05,weatherlink.com 1.10,2013-07-28 22:27:00,
2013-07-28 18:42:00,78.5,74.0,30.03,WNW,288,0.0,0.0,86,0.00,,,0.05,weatherlink.com 1.10,2013-07-28 22:42:00,
2013-07-28 18:57:00,78.1,74.0,30.02,WNW,288,0.0,0.0,88,0.01,,,0.06,weatherlink.com 1.10,2013-07-28 22:57:00,
2013-07-28 19:12:00,77.6,75.0,30.02,WNW,287,0.0,0.0,90,0.02,,,0.07,weatherlink.com 1.10,2013-07-28 23:12:00,
2013-07-28 19:27:00,77.3,75.0,30.02,WNW,288,0.0,0.0,92,0.03,,,0.08,weatherlink.com 1.10,2013-07-28 23:27:00,
2013-07-28 19:42:00,77.2,75.0,30.02,NNE,25,0.0,0.0,92,0.03,,,0.08,weatherlink.com 1.10,2013-07-28 23:42:00,
2013-07-28 19:57:00,77.2,75.0,30.02,North,6,0.0,0.0,93,0.02,,,0.08,weatherlink.com 1.10,2013-07-28 23:57:00,
2013-07-28 20:12:00,77.2,75.0,30.03,ESE,108,0.0,0.0,93,0.01,,,0.08,weatherlink.com 1.10,2013-07-29 00:12:00,
2013-07-28 20:27:00,76.8,75.0,30.03,SSE,156,0.0,0.0,94,0.00,,,0.08,weatherlink.com 1.10,2013-07-29 00:27:00,
2013-07-28 20:42:00,76.6,75.0,30.03,SSE,157,0.0,0.0,95,0.00,,,0.08,weatherlink.com 1.10,2013-07-29 00:42:00,
2013-07-28 20:57:00,76.5,75.0,30.04,SSE,155,0.0,0.0,95,0.00,,,0.08,weatherlink.com 1.10,2013-07-29 00:57:00,
2013-07-28 21:12:00,76.4,75.0,30.04,SSE,156,0.0,0.0,95,0.00,,,0.08,weatherlink.com 1.10,2013-07-29 01:12:00,
2013-07-28 21:42:00,76.1,75.0,30.05,SSE,150,0.0,0.0,96,0.00,,,0.08,weatherlink.com 1.10,2013-07-29 01:42:00,
2013-07-28 21:57:00,75.8,75.0,30.05,SE,139,0.0,0.0,96,0.00,,,0.08,weatherlink.com 1.10,2013-07-29 01:57:00,
2013-07-28 22:12:00,75.5,74.0,30.05,SE,142,0.0,0.0,96,0.01,,,0.09,weatherlink.com 1.10,2013-07-29 02:12:00,
2013-07-28 22:42:00,75.1,74.0,30.06,SSE,156,0.0,0.0,96,0.01,,,0.09,weatherlink.com 1.10,2013-07-29 02:42:00,
2013-07-28 22:57:00,75.0,74.0,30.07,SSW,203,0.0,0.0,96,0.01,,,0.09,weatherlink.com 1.10,2013-07-29 02:57:00,
2013-07-28 23:12:00,74.7,74.0,30.07,SSE,154,0.0,0.0,96,0.00,,,0.09,weatherlink.com 1.10,2013-07-29 03:12:00,
2013-07-28 23:27:00,74.5,73.0,30.07,SSE,156,0.0,0.0,96,0.00,,,0.09,weatherlink.com 1.10,2013-07-29 03:27:00,
2013-07-28 23:42:00,74.3,73.0,30.07,SSE,158,0.0,0.0,97,0.00,,,0.09,weatherlink.com 1.10,2013-07-29 03:42:00,
2013-07-28 23:57:00,74.1,73.0,30.07,SSE,150,0.0,0.0,97,0.00,,,0.09,weatherlink.com 1.10,2013-07-29 03:57:00,